sensor_id;sensor_type;location;lat;lon;timestamp;P1;durP1;ratioP1;P2;durP2;ratioP2
75554;SDS011;66087;53.126;17.960;2023-04-06T00:02:23;53.80;;;21.40;;
75554;SDS011;66087;53.126;17.960;2023-04-06T00:04:50;62.40;;;22.60;;
75554;SDS011;66087;53.126;17.960;2023-04-06T00:07:17;48.20;;;20.40;;
75554;SDS011;66087;53.126;17.960;2023-04-06T00:09:44;54.10;;;19.80;;
75554;SDS011;66087;53.126;17.960;2023-04-06T00:12:11;55.70;;;21.80;;
75554;SDS011;66087;53.126;17.960;2023-04-06T00:14:37;47.30;;;17.90;;
75554;SDS011;66087;53.126;17.960;2023-04-06T00:17:04;48.60;;;19.70;;
75554;SDS011;66087;53.126;17.960;2023-04-06T00:19:31;43.40;;;16.30;;
75554;SDS011;66087;53.126;17.960;2023-04-06T00:21:58;54.50;;;23.00;;
75554;SDS011;66087;53.126;17.960;2023-04-06T00:24:24;58.00;;;24.00;;
75554;SDS011;66087;53.126;17.960;2023-04-06T00:26:51;62.60;;;21.70;;
75554;SDS011;66087;53.126;17.960;2023-04-06T00:29:18;60.20;;;21.20;;
75554;SDS011;66087;53.126;17.960;2023-04-06T00:31:45;63.50;;;23.90;;
75554;SDS011;66087;53.126;17.960;2023-04-06T00:34:11;47.70;;;17.90;;
75554;SDS011;66087;53.126;17.960;2023-04-06T00:36:38;48.60;;;19.60;;
75554;SDS011;66087;53.126;17.960;2023-04-06T00:39:05;46.00;;;19.30;;
75554;SDS011;66087;53.126;17.960;2023-04-06T00:41:33;39.80;;;16.20;;
75554;SDS011;66087;53.126;17.960;2023-04-06T00:44:00;47.10;;;17.50;;
75554;SDS011;66087;53.126;17.960;2023-04-06T00:46:27;46.60;;;15.90;;
75554;SDS011;66087;53.126;17.960;2023-04-06T00:48:54;47.80;;;21.30;;
75554;SDS011;66087;53.126;17.960;2023-04-06T00:51:22;39.80;;;16.10;;
75554;SDS011;66087;53.126;17.960;2023-04-06T00:53:49;54.70;;;20.30;;
75554;SDS011;66087;53.126;17.960;2023-04-06T00:56:16;49.40;;;19.40;;
75554;SDS011;66087;53.126;17.960;2023-04-06T00:58:49;42.40;;;17.20;;
75554;SDS011;66087;53.126;17.960;2023-04-06T01:01:16;51.80;;;19.40;;
75554;SDS011;66087;53.126;17.960;2023-04-06T01:03:44;46.20;;;17.70;;
75554;SDS011;66087;53.126;17.960;2023-04-06T01:06:14;49.30;;;20.60;;
75554;SDS011;66087;53.126;17.960;2023-04-06T01:08:41;62.30;;;24.70;;
75554;SDS011;66087;53.126;17.960;2023-04-06T01:11:15;43.50;;;19.90;;
75554;SDS011;66087;53.126;17.960;2023-04-06T01:13:42;47.50;;;18.40;;
75554;SDS011;66087;53.126;17.960;2023-04-06T01:16:16;43.50;;;17.30;;
75554;SDS011;66087;53.126;17.960;2023-04-06T01:18:49;35.50;;;15.00;;
75554;SDS011;66087;53.126;17.960;2023-04-06T01:21:19;45.70;;;16.70;;
75554;SDS011;66087;53.126;17.960;2023-04-06T01:23:58;48.40;;;18.30;;
75554;SDS011;66087;53.126;17.960;2023-04-06T01:26:31;44.50;;;17.60;;
75554;SDS011;66087;53.126;17.960;2023-04-06T01:28:58;41.00;;;16.80;;
75554;SDS011;66087;53.126;17.960;2023-04-06T01:31:28;57.70;;;23.60;;
75554;SDS011;66087;53.126;17.960;2023-04-06T01:33:56;58.40;;;23.40;;
75554;SDS011;66087;53.126;17.960;2023-04-06T01:36:24;63.80;;;24.60;;
75554;SDS011;66087;53.126;17.960;2023-04-06T01:38:57;56.60;;;21.10;;
75554;SDS011;66087;53.126;17.960;2023-04-06T01:41:31;45.40;;;17.20;;
75554;SDS011;66087;53.126;17.960;2023-04-06T01:43:57;45.20;;;16.40;;
75554;SDS011;66087;53.126;17.960;2023-04-06T01:46:28;45.70;;;19.20;;
75554;SDS011;66087;53.126;17.960;2023-04-06T01:48:55;41.30;;;15.40;;
75554;SDS011;66087;53.126;17.960;2023-04-06T01:51:30;45.50;;;18.20;;
75554;SDS011;66087;53.126;17.960;2023-04-06T01:53:59;48.20;;;19.90;;
75554;SDS011;66087;53.126;17.960;2023-04-06T01:56:35;41.80;;;18.70;;
75554;SDS011;66087;53.126;17.960;2023-04-06T01:59:10;43.90;;;17.70;;
75554;SDS011;66087;53.126;17.960;2023-04-06T02:01:39;41.10;;;16.40;;
75554;SDS011;66087;53.126;17.960;2023-04-06T02:04:06;33.50;;;14.20;;
75554;SDS011;66087;53.126;17.960;2023-04-06T02:06:32;52.80;;;19.70;;
75554;SDS011;66087;53.126;17.960;2023-04-06T02:08:59;48.10;;;18.40;;
75554;SDS011;66087;53.126;17.960;2023-04-06T02:11:26;50.80;;;18.90;;
75554;SDS011;66087;53.126;17.960;2023-04-06T02:13:55;50.40;;;19.20;;
75554;SDS011;66087;53.126;17.960;2023-04-06T02:16:23;38.40;;;15.00;;
75554;SDS011;66087;53.126;17.960;2023-04-06T02:18:50;38.70;;;15.80;;
75554;SDS011;66087;53.126;17.960;2023-04-06T02:21:17;47.40;;;18.90;;
75554;SDS011;66087;53.126;17.960;2023-04-06T02:23:46;36.70;;;15.40;;
75554;SDS011;66087;53.126;17.960;2023-04-06T02:26:14;45.50;;;18.40;;
75554;SDS011;66087;53.126;17.960;2023-04-06T02:28:41;46.10;;;18.60;;
75554;SDS011;66087;53.126;17.960;2023-04-06T02:31:08;42.30;;;16.20;;
75554;SDS011;66087;53.126;17.960;2023-04-06T02:33:35;42.00;;;16.30;;
75554;SDS011;66087;53.126;17.960;2023-04-06T02:36:02;41.20;;;17.90;;
75554;SDS011;66087;53.126;17.960;2023-04-06T02:38:29;38.80;;;13.90;;
75554;SDS011;66087;53.126;17.960;2023-04-06T02:40:58;39.50;;;15.20;;
75554;SDS011;66087;53.126;17.960;2023-04-06T02:43:26;37.60;;;15.60;;
75554;SDS011;66087;53.126;17.960;2023-04-06T02:45:59;39.80;;;16.50;;
75554;SDS011;66087;53.126;17.960;2023-04-06T02:48:26;35.80;;;14.50;;
75554;SDS011;66087;53.126;17.960;2023-04-06T02:50:53;34.60;;;14.40;;
75554;SDS011;66087;53.126;17.960;2023-04-06T02:53:20;35.00;;;15.10;;
75554;SDS011;66087;53.126;17.960;2023-04-06T02:55:47;55.60;;;21.40;;
75554;SDS011;66087;53.126;17.960;2023-04-06T02:58:13;40.40;;;15.50;;
75554;SDS011;66087;53.126;17.960;2023-04-06T03:00:45;42.20;;;18.00;;
75554;SDS011;66087;53.126;17.960;2023-04-06T03:03:11;45.10;;;17.10;;
75554;SDS011;66087;53.126;17.960;2023-04-06T03:05:39;42.50;;;13.10;;
75554;SDS011;66087;53.126;17.960;2023-04-06T03:08:06;40.80;;;16.10;;
75554;SDS011;66087;53.126;17.960;2023-04-06T03:10:39;34.90;;;12.70;;
75554;SDS011;66087;53.126;17.960;2023-04-06T03:13:06;45.30;;;16.40;;
75554;SDS011;66087;53.126;17.960;2023-04-06T03:15:44;47.80;;;18.80;;
75554;SDS011;66087;53.126;17.960;2023-04-06T03:18:13;45.40;;;17.20;;
75554;SDS011;66087;53.126;17.960;2023-04-06T03:20:43;48.70;;;19.90;;
75554;SDS011;66087;53.126;17.960;2023-04-06T03:23:10;42.70;;;16.50;;
75554;SDS011;66087;53.126;17.960;2023-04-06T03:25:40;39.20;;;17.40;;
75554;SDS011;66087;53.126;17.960;2023-04-06T03:28:08;33.00;;;13.20;;
75554;SDS011;66087;53.126;17.960;2023-04-06T03:30:40;36.90;;;15.50;;
75554;SDS011;66087;53.126;17.960;2023-04-06T03:33:07;41.90;;;18.10;;
75554;SDS011;66087;53.126;17.960;2023-04-06T03:35:37;34.80;;;16.80;;
75554;SDS011;66087;53.126;17.960;2023-04-06T03:38:04;41.70;;;18.30;;
75554;SDS011;66087;53.126;17.960;2023-04-06T03:40:31;32.60;;;14.00;;
75554;SDS011;66087;53.126;17.960;2023-04-06T03:42:58;32.90;;;14.80;;
75554;SDS011;66087;53.126;17.960;2023-04-06T03:45:25;39.50;;;16.70;;
75554;SDS011;66087;53.126;17.960;2023-04-06T03:47:51;36.40;;;17.20;;
75554;SDS011;66087;53.126;17.960;2023-04-06T03:50:18;39.90;;;21.40;;
75554;SDS011;66087;53.126;17.960;2023-04-06T03:52:45;42.40;;;19.00;;
75554;SDS011;66087;53.126;17.960;2023-04-06T03:55:13;31.90;;;15.40;;
75554;SDS011;66087;53.126;17.960;2023-04-06T03:57:39;31.10;;;14.90;;
75554;SDS011;66087;53.126;17.960;2023-04-06T04:00:06;29.70;;;14.30;;
75554;SDS011;66087;53.126;17.960;2023-04-06T04:02:41;24.90;;;12.60;;
75554;SDS011;66087;53.126;17.960;2023-04-06T04:05:07;30.70;;;14.80;;
75554;SDS011;66087;53.126;17.960;2023-04-06T04:07:36;28.40;;;12.30;;
75554;SDS011;66087;53.126;17.960;2023-04-06T04:10:06;32.20;;;15.80;;
75554;SDS011;66087;53.126;17.960;2023-04-06T04:12:33;35.20;;;16.90;;
75554;SDS011;66087;53.126;17.960;2023-04-06T04:14:59;29.90;;;14.90;;
75554;SDS011;66087;53.126;17.960;2023-04-06T04:17:26;41.10;;;19.00;;
75554;SDS011;66087;53.126;17.960;2023-04-06T04:19:53;27.20;;;14.30;;
75554;SDS011;66087;53.126;17.960;2023-04-06T04:22:19;31.00;;;16.30;;
75554;SDS011;66087;53.126;17.960;2023-04-06T04:24:46;32.70;;;16.80;;
75554;SDS011;66087;53.126;17.960;2023-04-06T04:27:13;46.30;;;21.70;;
75554;SDS011;66087;53.126;17.960;2023-04-06T04:29:40;43.40;;;18.90;;
75554;SDS011;66087;53.126;17.960;2023-04-06T04:32:08;47.60;;;19.70;;
75554;SDS011;66087;53.126;17.960;2023-04-06T04:34:35;32.70;;;14.60;;
75554;SDS011;66087;53.126;17.960;2023-04-06T04:37:02;48.40;;;21.40;;
75554;SDS011;66087;53.126;17.960;2023-04-06T04:39:38;49.40;;;24.00;;
75554;SDS011;66087;53.126;17.960;2023-04-06T04:42:06;36.50;;;16.00;;
75554;SDS011;66087;53.126;17.960;2023-04-06T04:44:34;39.60;;;19.50;;
75554;SDS011;66087;53.126;17.960;2023-04-06T04:47:01;40.70;;;17.10;;
75554;SDS011;66087;53.126;17.960;2023-04-06T04:49:34;41.90;;;20.40;;
75554;SDS011;66087;53.126;17.960;2023-04-06T04:52:01;43.50;;;19.20;;
75554;SDS011;66087;53.126;17.960;2023-04-06T04:54:37;38.20;;;18.00;;
75554;SDS011;66087;53.126;17.960;2023-04-06T04:57:04;16.10;;;7.30;;
75554;SDS011;66087;53.126;17.960;2023-04-06T04:59:42;29.00;;;13.30;;
75554;SDS011;66087;53.126;17.960;2023-04-06T05:02:16;24.60;;;11.40;;
75554;SDS011;66087;53.126;17.960;2023-04-06T05:04:51;38.90;;;19.40;;
75554;SDS011;66087;53.126;17.960;2023-04-06T05:07:21;29.50;;;14.40;;
75554;SDS011;66087;53.126;17.960;2023-04-06T05:09:49;27.60;;;14.20;;
75554;SDS011;66087;53.126;17.960;2023-04-06T05:12:16;34.50;;;15.50;;
75554;SDS011;66087;53.126;17.960;2023-04-06T05:14:52;35.10;;;16.20;;
75554;SDS011;66087;53.126;17.960;2023-04-06T05:17:21;35.40;;;18.30;;
75554;SDS011;66087;53.126;17.960;2023-04-06T05:19:49;40.30;;;20.10;;
75554;SDS011;66087;53.126;17.960;2023-04-06T05:22:21;37.10;;;17.20;;
75554;SDS011;66087;53.126;17.960;2023-04-06T05:24:54;38.40;;;18.50;;
75554;SDS011;66087;53.126;17.960;2023-04-06T05:27:21;54.10;;;24.80;;
75554;SDS011;66087;53.126;17.960;2023-04-06T05:29:49;44.60;;;20.80;;
75554;SDS011;66087;53.126;17.960;2023-04-06T05:32:16;48.40;;;23.40;;
75554;SDS011;66087;53.126;17.960;2023-04-06T05:34:43;52.70;;;26.70;;
75554;SDS011;66087;53.126;17.960;2023-04-06T05:37:09;44.10;;;20.80;;
75554;SDS011;66087;53.126;17.960;2023-04-06T05:39:36;51.10;;;22.10;;
75554;SDS011;66087;53.126;17.960;2023-04-06T05:42:04;53.90;;;25.00;;
75554;SDS011;66087;53.126;17.960;2023-04-06T05:44:52;62.90;;;27.40;;
75554;SDS011;66087;53.126;17.960;2023-04-06T05:47:20;64.70;;;31.20;;
75554;SDS011;66087;53.126;17.960;2023-04-06T05:49:51;52.20;;;27.60;;
75554;SDS011;66087;53.126;17.960;2023-04-06T05:52:25;66.10;;;29.80;;
75554;SDS011;66087;53.126;17.960;2023-04-06T05:54:51;58.60;;;27.00;;
75554;SDS011;66087;53.126;17.960;2023-04-06T05:57:18;43.90;;;21.20;;
75554;SDS011;66087;53.126;17.960;2023-04-06T05:59:45;56.40;;;27.80;;
75554;SDS011;66087;53.126;17.960;2023-04-06T06:02:13;48.40;;;25.00;;
75554;SDS011;66087;53.126;17.960;2023-04-06T06:04:42;54.50;;;27.30;;
75554;SDS011;66087;53.126;17.960;2023-04-06T06:07:09;54.40;;;28.30;;
75554;SDS011;66087;53.126;17.960;2023-04-06T06:09:42;42.50;;;19.00;;
75554;SDS011;66087;53.126;17.960;2023-04-06T06:12:20;40.80;;;21.30;;
75554;SDS011;66087;53.126;17.960;2023-04-06T06:14:47;48.30;;;22.90;;
75554;SDS011;66087;53.126;17.960;2023-04-06T06:17:14;38.40;;;17.70;;
75554;SDS011;66087;53.126;17.960;2023-04-06T06:19:42;41.30;;;20.70;;
75554;SDS011;66087;53.126;17.960;2023-04-06T06:22:09;39.70;;;19.70;;
75554;SDS011;66087;53.126;17.960;2023-04-06T06:24:38;51.30;;;23.80;;
75554;SDS011;66087;53.126;17.960;2023-04-06T06:27:05;57.90;;;24.90;;
75554;SDS011;66087;53.126;17.960;2023-04-06T06:29:34;49.50;;;20.40;;
75554;SDS011;66087;53.126;17.960;2023-04-06T06:32:01;45.00;;;20.10;;
75554;SDS011;66087;53.126;17.960;2023-04-06T06:34:27;52.60;;;22.90;;
75554;SDS011;66087;53.126;17.960;2023-04-06T06:36:55;48.00;;;20.90;;
75554;SDS011;66087;53.126;17.960;2023-04-06T06:39:22;39.90;;;19.10;;
75554;SDS011;66087;53.126;17.960;2023-04-06T06:41:49;37.50;;;17.90;;
75554;SDS011;66087;53.126;17.960;2023-04-06T06:44:16;42.00;;;19.10;;
75554;SDS011;66087;53.126;17.960;2023-04-06T06:46:43;36.10;;;16.00;;
75554;SDS011;66087;53.126;17.960;2023-04-06T06:49:10;35.50;;;14.60;;
75554;SDS011;66087;53.126;17.960;2023-04-06T06:51:38;29.30;;;14.20;;
75554;SDS011;66087;53.126;17.960;2023-04-06T06:54:05;36.90;;;16.90;;
75554;SDS011;66087;53.126;17.960;2023-04-06T06:56:32;36.00;;;17.70;;
75554;SDS011;66087;53.126;17.960;2023-04-06T06:58:59;36.20;;;18.80;;
75554;SDS011;66087;53.126;17.960;2023-04-06T07:01:26;40.30;;;18.60;;
75554;SDS011;66087;53.126;17.960;2023-04-06T07:03:54;36.50;;;17.10;;
75554;SDS011;66087;53.126;17.960;2023-04-06T07:06:21;36.50;;;17.90;;
75554;SDS011;66087;53.126;17.960;2023-04-06T07:08:48;44.80;;;19.70;;
75554;SDS011;66087;53.126;17.960;2023-04-06T07:11:15;30.00;;;13.80;;
75554;SDS011;66087;53.126;17.960;2023-04-06T07:13:42;36.30;;;16.50;;
75554;SDS011;66087;53.126;17.960;2023-04-06T07:16:09;41.00;;;17.70;;
75554;SDS011;66087;53.126;17.960;2023-04-06T07:18:35;52.30;;;21.90;;
75554;SDS011;66087;53.126;17.960;2023-04-06T07:21:02;46.60;;;19.40;;
75554;SDS011;66087;53.126;17.960;2023-04-06T07:23:29;37.00;;;17.70;;
75554;SDS011;66087;53.126;17.960;2023-04-06T07:25:56;41.00;;;18.00;;
75554;SDS011;66087;53.126;17.960;2023-04-06T07:28:22;30.20;;;14.40;;
75554;SDS011;66087;53.126;17.960;2023-04-06T07:30:49;29.20;;;16.10;;
75554;SDS011;66087;53.126;17.960;2023-04-06T07:33:17;26.50;;;12.30;;
75554;SDS011;66087;53.126;17.960;2023-04-06T07:35:43;33.80;;;16.50;;
75554;SDS011;66087;53.126;17.960;2023-04-06T07:38:11;28.50;;;15.60;;
75554;SDS011;66087;53.126;17.960;2023-04-06T07:40:39;29.00;;;13.80;;
75554;SDS011;66087;53.126;17.960;2023-04-06T07:43:06;29.30;;;14.70;;
75554;SDS011;66087;53.126;17.960;2023-04-06T07:45:32;19.50;;;9.70;;
75554;SDS011;66087;53.126;17.960;2023-04-06T07:48:00;22.40;;;11.50;;
75554;SDS011;66087;53.126;17.960;2023-04-06T07:50:27;23.90;;;12.40;;
75554;SDS011;66087;53.126;17.960;2023-04-06T07:52:54;21.90;;;11.30;;
75554;SDS011;66087;53.126;17.960;2023-04-06T07:55:21;28.00;;;12.80;;
75554;SDS011;66087;53.126;17.960;2023-04-06T07:57:47;28.00;;;13.50;;
75554;SDS011;66087;53.126;17.960;2023-04-06T08:00:15;19.70;;;8.90;;
75554;SDS011;66087;53.126;17.960;2023-04-06T08:02:43;19.60;;;9.60;;
75554;SDS011;66087;53.126;17.960;2023-04-06T08:05:10;18.10;;;9.40;;
75554;SDS011;66087;53.126;17.960;2023-04-06T08:07:36;19.20;;;10.10;;
75554;SDS011;66087;53.126;17.960;2023-04-06T08:10:03;20.20;;;10.20;;
75554;SDS011;66087;53.126;17.960;2023-04-06T08:12:31;18.40;;;9.60;;
75554;SDS011;66087;53.126;17.960;2023-04-06T08:14:59;15.70;;;6.60;;
75554;SDS011;66087;53.126;17.960;2023-04-06T08:17:26;15.10;;;7.10;;
75554;SDS011;66087;53.126;17.960;2023-04-06T08:19:56;13.80;;;6.50;;
75554;SDS011;66087;53.126;17.960;2023-04-06T08:22:23;12.00;;;6.20;;
75554;SDS011;66087;53.126;17.960;2023-04-06T08:24:50;10.80;;;5.40;;
75554;SDS011;66087;53.126;17.960;2023-04-06T08:27:17;8.90;;;3.70;;
75554;SDS011;66087;53.126;17.960;2023-04-06T08:29:44;6.70;;;2.80;;
75554;SDS011;66087;53.126;17.960;2023-04-06T08:32:10;9.50;;;3.30;;
75554;SDS011;66087;53.126;17.960;2023-04-06T08:34:37;6.60;;;3.00;;
75554;SDS011;66087;53.126;17.960;2023-04-06T08:37:04;7.90;;;3.50;;
75554;SDS011;66087;53.126;17.960;2023-04-06T08:39:31;6.20;;;2.80;;
75554;SDS011;66087;53.126;17.960;2023-04-06T08:42:00;7.30;;;3.60;;
75554;SDS011;66087;53.126;17.960;2023-04-06T08:44:29;8.20;;;3.60;;
75554;SDS011;66087;53.126;17.960;2023-04-06T08:46:56;8.70;;;3.40;;
75554;SDS011;66087;53.126;17.960;2023-04-06T08:49:25;7.10;;;3.30;;
75554;SDS011;66087;53.126;17.960;2023-04-06T08:51:53;6.30;;;2.80;;
75554;SDS011;66087;53.126;17.960;2023-04-06T08:54:22;7.30;;;3.30;;
75554;SDS011;66087;53.126;17.960;2023-04-06T08:56:48;6.00;;;2.90;;
75554;SDS011;66087;53.126;17.960;2023-04-06T08:59:15;6.70;;;3.20;;
75554;SDS011;66087;53.126;17.960;2023-04-06T09:01:42;7.60;;;3.10;;
75554;SDS011;66087;53.126;17.960;2023-04-06T09:04:12;6.50;;;2.40;;
75554;SDS011;66087;53.126;17.960;2023-04-06T09:06:39;7.70;;;3.30;;
75554;SDS011;66087;53.126;17.960;2023-04-06T09:09:06;9.30;;;4.00;;
75554;SDS011;66087;53.126;17.960;2023-04-06T09:14:15;5.80;;;2.80;;
75554;SDS011;66087;53.126;17.960;2023-04-06T09:16:43;7.30;;;3.70;;
75554;SDS011;66087;53.126;17.960;2023-04-06T09:19:12;6.50;;;2.90;;
75554;SDS011;66087;53.126;17.960;2023-04-06T09:21:39;7.40;;;3.30;;
75554;SDS011;66087;53.126;17.960;2023-04-06T09:24:06;6.40;;;2.70;;
75554;SDS011;66087;53.126;17.960;2023-04-06T09:26:45;8.80;;;3.80;;
75554;SDS011;66087;53.126;17.960;2023-04-06T09:31:52;10.00;;;4.60;;
75554;SDS011;66087;53.126;17.960;2023-04-06T09:34:29;7.90;;;4.20;;
75554;SDS011;66087;53.126;17.960;2023-04-06T09:36:56;6.60;;;3.50;;
75554;SDS011;66087;53.126;17.960;2023-04-06T09:39:23;6.90;;;3.00;;
75554;SDS011;66087;53.126;17.960;2023-04-06T09:41:50;6.50;;;3.00;;
75554;SDS011;66087;53.126;17.960;2023-04-06T09:44:18;4.70;;;2.40;;
75554;SDS011;66087;53.126;17.960;2023-04-06T09:46:46;7.90;;;3.10;;
75554;SDS011;66087;53.126;17.960;2023-04-06T09:49:13;5.50;;;2.60;;
75554;SDS011;66087;53.126;17.960;2023-04-06T09:51:43;7.20;;;3.70;;
75554;SDS011;66087;53.126;17.960;2023-04-06T09:54:19;7.20;;;3.90;;
75554;SDS011;66087;53.126;17.960;2023-04-06T09:56:56;7.50;;;4.20;;
75554;SDS011;66087;53.126;17.960;2023-04-06T09:59:44;7.10;;;2.90;;
75554;SDS011;66087;53.126;17.960;2023-04-06T10:02:26;7.10;;;3.30;;
75554;SDS011;66087;53.126;17.960;2023-04-06T10:05:09;7.50;;;4.00;;
75554;SDS011;66087;53.126;17.960;2023-04-06T10:07:41;8.10;;;3.80;;
75554;SDS011;66087;53.126;17.960;2023-04-06T10:10:09;7.60;;;4.20;;
75554;SDS011;66087;53.126;17.960;2023-04-06T10:12:38;6.90;;;4.10;;
75554;SDS011;66087;53.126;17.960;2023-04-06T10:15:06;7.00;;;3.40;;
75554;SDS011;66087;53.126;17.960;2023-04-06T10:17:34;7.00;;;3.20;;
75554;SDS011;66087;53.126;17.960;2023-04-06T10:20:04;9.50;;;4.40;;
75554;SDS011;66087;53.126;17.960;2023-04-06T10:22:45;8.70;;;4.10;;
75554;SDS011;66087;53.126;17.960;2023-04-06T10:25:27;7.80;;;4.40;;
75554;SDS011;66087;53.126;17.960;2023-04-06T10:28:01;7.10;;;3.90;;
75554;SDS011;66087;53.126;17.960;2023-04-06T10:30:31;7.30;;;3.30;;
75554;SDS011;66087;53.126;17.960;2023-04-06T10:32:59;6.90;;;3.70;;
75554;SDS011;66087;53.126;17.960;2023-04-06T10:38:04;6.90;;;3.00;;
75554;SDS011;66087;53.126;17.960;2023-04-06T10:40:31;7.00;;;3.10;;
75554;SDS011;66087;53.126;17.960;2023-04-06T10:43:09;7.10;;;3.20;;
75554;SDS011;66087;53.126;17.960;2023-04-06T10:45:39;5.60;;;3.00;;
75554;SDS011;66087;53.126;17.960;2023-04-06T10:48:14;6.80;;;2.90;;
75554;SDS011;66087;53.126;17.960;2023-04-06T10:50:46;7.50;;;3.60;;
75554;SDS011;66087;53.126;17.960;2023-04-06T10:53:21;6.80;;;3.10;;
75554;SDS011;66087;53.126;17.960;2023-04-06T10:55:51;4.90;;;2.20;;
75554;SDS011;66087;53.126;17.960;2023-04-06T10:58:20;7.50;;;3.50;;
75554;SDS011;66087;53.126;17.960;2023-04-06T11:00:51;6.80;;;3.20;;
75554;SDS011;66087;53.126;17.960;2023-04-06T11:03:18;4.80;;;2.00;;
75554;SDS011;66087;53.126;17.960;2023-04-06T11:05:45;5.30;;;2.30;;
75554;SDS011;66087;53.126;17.960;2023-04-06T11:16:15;7.80;;;4.40;;
75554;SDS011;66087;53.126;17.960;2023-04-06T11:24:03;5.90;;;2.70;;
75554;SDS011;66087;53.126;17.960;2023-04-06T11:26:39;6.90;;;3.60;;
75554;SDS011;66087;53.126;17.960;2023-04-06T11:29:10;6.20;;;3.20;;
75554;SDS011;66087;53.126;17.960;2023-04-06T11:31:46;8.50;;;2.20;;
75554;SDS011;66087;53.126;17.960;2023-04-06T11:34:22;7.20;;;3.30;;
75554;SDS011;66087;53.126;17.960;2023-04-06T11:36:53;5.00;;;2.20;;
75554;SDS011;66087;53.126;17.960;2023-04-06T11:39:24;5.40;;;2.50;;
75554;SDS011;66087;53.126;17.960;2023-04-06T11:41:53;6.90;;;3.10;;
75554;SDS011;66087;53.126;17.960;2023-04-06T11:44:31;5.30;;;1.80;;
75554;SDS011;66087;53.126;17.960;2023-04-06T11:47:00;6.30;;;2.60;;
75554;SDS011;66087;53.126;17.960;2023-04-06T11:49:29;5.70;;;2.80;;
75554;SDS011;66087;53.126;17.960;2023-04-06T11:51:57;7.30;;;3.10;;
75554;SDS011;66087;53.126;17.960;2023-04-06T11:54:30;7.50;;;3.30;;
75554;SDS011;66087;53.126;17.960;2023-04-06T11:56:58;5.60;;;2.70;;
75554;SDS011;66087;53.126;17.960;2023-04-06T11:59:25;4.30;;;2.10;;
75554;SDS011;66087;53.126;17.960;2023-04-06T12:01:51;6.30;;;2.90;;
75554;SDS011;66087;53.126;17.960;2023-04-06T12:04:19;5.20;;;2.30;;
75554;SDS011;66087;53.126;17.960;2023-04-06T12:06:47;6.90;;;3.20;;
75554;SDS011;66087;53.126;17.960;2023-04-06T12:09:15;4.70;;;2.10;;
75554;SDS011;66087;53.126;17.960;2023-04-06T12:11:44;6.70;;;2.80;;
75554;SDS011;66087;53.126;17.960;2023-04-06T12:14:11;6.30;;;3.00;;
75554;SDS011;66087;53.126;17.960;2023-04-06T12:16:38;6.00;;;3.00;;
75554;SDS011;66087;53.126;17.960;2023-04-06T12:19:06;5.00;;;2.20;;
75554;SDS011;66087;53.126;17.960;2023-04-06T12:21:33;7.30;;;3.10;;
75554;SDS011;66087;53.126;17.960;2023-04-06T12:24:03;6.20;;;2.80;;
75554;SDS011;66087;53.126;17.960;2023-04-06T12:26:30;5.60;;;2.60;;
75554;SDS011;66087;53.126;17.960;2023-04-06T12:28:58;6.10;;;3.40;;
75554;SDS011;66087;53.126;17.960;2023-04-06T12:31:34;6.20;;;3.40;;
75554;SDS011;66087;53.126;17.960;2023-04-06T12:34:02;6.50;;;2.80;;
75554;SDS011;66087;53.126;17.960;2023-04-06T12:36:29;6.50;;;2.80;;
75554;SDS011;66087;53.126;17.960;2023-04-06T12:38:57;8.40;;;3.80;;
75554;SDS011;66087;53.126;17.960;2023-04-06T12:41:24;6.40;;;3.00;;
75554;SDS011;66087;53.126;17.960;2023-04-06T12:43:51;6.40;;;3.30;;
75554;SDS011;66087;53.126;17.960;2023-04-06T12:46:18;6.00;;;2.70;;
75554;SDS011;66087;53.126;17.960;2023-04-06T12:48:45;5.90;;;2.60;;
75554;SDS011;66087;53.126;17.960;2023-04-06T12:51:12;7.00;;;3.40;;
75554;SDS011;66087;53.126;17.960;2023-04-06T12:53:39;4.10;;;2.20;;
75554;SDS011;66087;53.126;17.960;2023-04-06T12:56:13;7.60;;;3.40;;
75554;SDS011;66087;53.126;17.960;2023-04-06T12:58:42;6.00;;;2.50;;
75554;SDS011;66087;53.126;17.960;2023-04-06T13:01:08;5.60;;;2.60;;
75554;SDS011;66087;53.126;17.960;2023-04-06T13:03:38;5.50;;;2.80;;
75554;SDS011;66087;53.126;17.960;2023-04-06T13:06:05;6.20;;;3.40;;
75554;SDS011;66087;53.126;17.960;2023-04-06T13:08:34;8.00;;;4.10;;
75554;SDS011;66087;53.126;17.960;2023-04-06T13:11:03;6.40;;;3.40;;
75554;SDS011;66087;53.126;17.960;2023-04-06T13:13:31;7.10;;;3.20;;
75554;SDS011;66087;53.126;17.960;2023-04-06T13:15:59;8.40;;;4.10;;
75554;SDS011;66087;53.126;17.960;2023-04-06T13:18:29;7.00;;;4.70;;
75554;SDS011;66087;53.126;17.960;2023-04-06T13:20:58;7.20;;;4.10;;
75554;SDS011;66087;53.126;17.960;2023-04-06T13:23:26;7.50;;;4.10;;
75554;SDS011;66087;53.126;17.960;2023-04-06T13:26:01;6.20;;;3.30;;
75554;SDS011;66087;53.126;17.960;2023-04-06T13:28:30;7.50;;;4.10;;
75554;SDS011;66087;53.126;17.960;2023-04-06T13:30:59;5.90;;;3.30;;
75554;SDS011;66087;53.126;17.960;2023-04-06T13:33:27;6.60;;;4.00;;
75554;SDS011;66087;53.126;17.960;2023-04-06T13:35:55;7.70;;;4.60;;
75554;SDS011;66087;53.126;17.960;2023-04-06T13:38:22;6.80;;;4.20;;
75554;SDS011;66087;53.126;17.960;2023-04-06T13:40:50;7.20;;;3.70;;
75554;SDS011;66087;53.126;17.960;2023-04-06T13:43:17;6.60;;;3.10;;
75554;SDS011;66087;53.126;17.960;2023-04-06T13:45:50;7.10;;;4.00;;
75554;SDS011;66087;53.126;17.960;2023-04-06T13:48:17;9.60;;;4.50;;
75554;SDS011;66087;53.126;17.960;2023-04-06T13:50:45;7.60;;;4.30;;
75554;SDS011;66087;53.126;17.960;2023-04-06T13:53:13;8.30;;;4.30;;
75554;SDS011;66087;53.126;17.960;2023-04-06T13:55:39;7.00;;;4.30;;
75554;SDS011;66087;53.126;17.960;2023-04-06T13:58:07;5.70;;;3.70;;
75554;SDS011;66087;53.126;17.960;2023-04-06T14:00:33;8.40;;;4.00;;
75554;SDS011;66087;53.126;17.960;2023-04-06T14:03:01;6.20;;;3.20;;
75554;SDS011;66087;53.126;17.960;2023-04-06T14:05:31;7.40;;;4.00;;
75554;SDS011;66087;53.126;17.960;2023-04-06T14:07:59;6.60;;;3.60;;
75554;SDS011;66087;53.126;17.960;2023-04-06T14:10:26;6.30;;;3.70;;
75554;SDS011;66087;53.126;17.960;2023-04-06T14:12:53;8.40;;;4.20;;
75554;SDS011;66087;53.126;17.960;2023-04-06T14:15:20;7.30;;;4.10;;
75554;SDS011;66087;53.126;17.960;2023-04-06T14:17:48;9.70;;;4.60;;
75554;SDS011;66087;53.126;17.960;2023-04-06T14:20:15;7.00;;;4.30;;
75554;SDS011;66087;53.126;17.960;2023-04-06T14:22:42;7.30;;;4.80;;
75554;SDS011;66087;53.126;17.960;2023-04-06T14:25:09;8.10;;;4.50;;
75554;SDS011;66087;53.126;17.960;2023-04-06T14:27:37;7.40;;;5.00;;
75554;SDS011;66087;53.126;17.960;2023-04-06T14:30:04;5.90;;;3.70;;
75554;SDS011;66087;53.126;17.960;2023-04-06T14:32:31;6.30;;;4.40;;
75554;SDS011;66087;53.126;17.960;2023-04-06T14:35:03;8.60;;;5.00;;
75554;SDS011;66087;53.126;17.960;2023-04-06T14:37:30;8.30;;;5.70;;
75554;SDS011;66087;53.126;17.960;2023-04-06T14:39:57;7.30;;;5.00;;
75554;SDS011;66087;53.126;17.960;2023-04-06T14:42:23;8.60;;;5.00;;
75554;SDS011;66087;53.126;17.960;2023-04-06T14:44:50;5.70;;;3.60;;
75554;SDS011;66087;53.126;17.960;2023-04-06T14:47:16;7.30;;;4.70;;
75554;SDS011;66087;53.126;17.960;2023-04-06T14:49:50;7.50;;;4.40;;
75554;SDS011;66087;53.126;17.960;2023-04-06T14:52:17;6.80;;;4.40;;